createdAt,value
2022-11-14T00:00:11.109Z,43.51
2022-11-14T00:01:11.161Z,44.58
2022-11-14T00:02:11.150Z,44.33
2022-11-14T00:03:11.118Z,43.47
2022-11-14T00:04:11.161Z,43.17
2022-11-14T00:05:11.086Z,43.26
2022-11-14T00:06:11.054Z,43.35
2022-11-14T00:07:11.127Z,42.66
2022-11-14T00:08:11.040Z,43.34
2022-11-14T00:09:11.030Z,47.26
2022-11-14T00:10:11.058Z,51.65
2022-11-14T00:11:11.042Z,43.61
2022-11-14T00:12:11.025Z,45.67
2022-11-14T00:13:11.005Z,46.92
2022-11-14T00:14:11.033Z,45.83
2022-11-14T00:15:10.977Z,46.72
2022-11-14T00:16:10.983Z,45.63
2022-11-14T00:17:11.069Z,43.05
2022-11-14T00:18:10.991Z,46.77
2022-11-14T00:19:11.873Z,45.76
2022-11-14T00:20:10.956Z,43.58
2022-11-14T00:21:10.947Z,44.08
2022-11-14T00:22:10.935Z,44.91
2022-11-14T00:23:10.919Z,45.38
2022-11-14T00:24:10.925Z,44.84
2022-11-14T00:25:10.920Z,44.56
2022-11-14T00:26:11.969Z,45.94
2022-11-14T00:27:10.879Z,51.09
2022-11-14T00:28:10.912Z,46.52
2022-11-14T00:29:10.872Z,46.52
2022-11-14T00:30:10.873Z,43.77
2022-11-14T00:31:10.853Z,44.83
2022-11-14T00:32:10.888Z,43.74
2022-11-14T00:33:13.651Z,47.16
2022-11-14T00:34:11.849Z,45.12
2022-11-14T00:35:10.839Z,45.51
2022-11-14T00:36:10.822Z,49.59
2022-11-14T00:37:10.837Z,43.84
2022-11-14T00:38:10.794Z,44.50
2022-11-14T00:39:10.796Z,48.26
2022-11-14T00:40:10.799Z,46.33
2022-11-14T00:41:10.783Z,49.00
2022-11-14T00:42:10.774Z,50.41
2022-11-14T00:43:10.777Z,48.32
2022-11-14T00:44:10.775Z,50.27
2022-11-14T00:45:10.849Z,50.81
2022-11-14T00:46:10.771Z,45.12
2022-11-14T00:47:10.752Z,46.04
2022-11-14T00:48:10.724Z,45.29
2022-11-14T00:49:10.854Z,45.13
2022-11-14T00:50:10.708Z,46.27
2022-11-14T00:51:10.704Z,43.74
2022-11-14T00:52:10.714Z,44.21
2022-11-14T00:53:10.691Z,47.66
2022-11-14T00:54:10.687Z,43.15
2022-11-14T00:55:10.690Z,44.87
2022-11-14T00:56:10.658Z,47.36
2022-11-14T00:57:10.720Z,42.81
2022-11-14T00:58:10.685Z,42.90
2022-11-14T00:59:10.673Z,43.28
2022-11-14T01:00:10.735Z,43.60
2022-11-14T01:01:10.673Z,43.26
2022-11-14T01:02:10.595Z,42.42
2022-11-14T01:03:10.645Z,42.80
2022-11-14T01:04:10.613Z,43.25
2022-11-14T01:05:10.724Z,47.09
2022-11-14T01:06:10.581Z,46.41
2022-11-14T01:07:10.573Z,43.45
2022-11-14T01:08:10.596Z,42.80
2022-11-14T01:09:10.770Z,42.90
2022-11-14T01:10:10.566Z,43.14
2022-11-14T01:11:10.591Z,42.77
2022-11-14T01:12:10.557Z,48.76
2022-11-14T01:13:10.549Z,43.18
2022-11-14T01:14:10.525Z,43.85
2022-11-14T01:15:10.521Z,44.57
2022-11-14T01:16:10.531Z,43.62
2022-11-14T01:17:10.510Z,43.28
2022-11-14T01:18:10.495Z,44.59
2022-11-14T01:19:10.488Z,54.80
2022-11-14T01:20:10.486Z,45.84
2022-11-14T01:21:10.596Z,44.94
2022-11-14T01:22:10.479Z,45.07
2022-11-14T01:23:10.498Z,44.18
2022-11-14T01:24:10.514Z,45.57
2022-11-14T01:25:10.458Z,48.28
2022-11-14T01:26:10.434Z,42.38
2022-11-14T01:27:10.505Z,43.04
2022-11-14T01:28:10.430Z,43.09
2022-11-14T01:29:10.482Z,49.36
2022-11-14T01:30:10.413Z,44.00
2022-11-14T01:31:10.457Z,43.08
2022-11-14T01:32:10.386Z,48.56
2022-11-14T01:33:10.402Z,42.73
2022-11-14T01:34:10.364Z,49.05
2022-11-14T01:35:10.363Z,42.74
2022-11-14T01:36:10.391Z,42.77
2022-11-14T01:37:10.448Z,48.03
2022-11-14T01:38:10.370Z,43.36
2022-11-14T01:39:10.351Z,43.38
2022-11-14T01:40:10.337Z,43.63
2022-11-14T01:41:10.323Z,48.39
2022-11-14T01:42:10.360Z,43.67
2022-11-14T01:43:10.446Z,43.05
2022-11-14T01:44:10.332Z,42.55
2022-11-14T02:01:57.245Z,43.39
2022-11-14T02:02:56.982Z,43.07
2022-11-14T02:03:56.950Z,42.43
2022-11-14T02:04:56.987Z,43.38
2022-11-14T02:05:56.981Z,48.06
2022-11-14T02:06:56.949Z,43.07
2022-11-14T02:07:56.970Z,49.01
2022-11-14T02:08:56.934Z,46.46
2022-11-14T02:09:56.920Z,46.34
2022-11-14T02:10:56.986Z,43.81
2022-11-14T02:12:28.761Z,42.89
2022-11-14T02:12:56.836Z,42.50
2022-11-14T02:13:56.831Z,49.24
2022-11-14T02:15:28.737Z,43.71
2022-11-14T02:15:56.800Z,55.11
2022-11-14T02:17:22.660Z,43.67
2022-11-14T02:17:58.784Z,45.22
2022-11-14T02:18:56.813Z,47.65
2022-11-14T02:20:00.805Z,47.68
2022-11-14T02:20:57.770Z,44.59
2022-11-14T02:21:56.780Z,43.54
2022-11-14T02:22:56.760Z,43.53
2022-11-14T02:23:56.753Z,44.02
2022-11-14T02:24:56.734Z,45.65
2022-11-14T02:25:56.750Z,51.68
2022-11-14T02:26:56.744Z,50.63
2022-11-14T02:27:56.715Z,45.49
2022-11-14T02:28:56.760Z,45.35
2022-11-14T02:29:56.704Z,45.91
2022-11-14T02:30:57.705Z,49.40
2022-11-14T02:31:56.692Z,54.58
2022-11-14T02:33:10.417Z,44.87
2022-11-14T02:33:59.413Z,44.45
2022-11-14T02:34:56.671Z,43.42
2022-11-14T02:35:56.725Z,49.37
2022-11-14T02:36:56.664Z,44.50
2022-11-14T02:37:56.631Z,43.76
2022-11-14T02:38:56.625Z,49.89
2022-11-14T02:39:56.613Z,45.56
2022-11-14T02:40:56.655Z,45.22
2022-11-14T02:41:56.647Z,49.84
2022-11-14T02:42:56.594Z,50.90
2022-11-14T02:43:56.584Z,53.00
2022-11-14T02:44:56.609Z,47.41
2022-11-14T02:45:59.179Z,45.44
2022-11-14T02:46:57.589Z,46.24
2022-11-14T02:47:56.584Z,46.02
2022-11-14T02:48:56.680Z,45.08
2022-11-14T02:49:56.558Z,49.62
2022-11-14T02:50:57.572Z,50.52
2022-11-14T02:51:56.551Z,56.00
2022-11-14T02:52:56.540Z,54.29
2022-11-14T02:53:57.412Z,59.40
2022-11-14T02:54:56.516Z,60.28
2022-11-14T02:55:56.546Z,45.41
2022-11-14T02:56:56.502Z,57.66
2022-11-14T02:57:56.474Z,46.08
2022-11-14T02:58:56.508Z,47.52
2022-11-14T02:59:56.505Z,45.99
2022-11-14T03:01:19.106Z,49.01
2022-11-14T03:01:58.536Z,46.77
2022-11-14T03:02:57.380Z,52.79
2022-11-14T03:03:56.435Z,50.70
2022-11-14T03:04:56.566Z,44.99
2022-11-14T03:05:57.376Z,49.54
2022-11-14T03:06:56.498Z,44.74
2022-11-14T03:07:56.447Z,50.81
2022-11-14T03:08:56.408Z,45.52
2022-11-14T03:09:56.397Z,46.85
2022-11-14T03:10:56.504Z,50.53
2022-11-14T03:11:56.419Z,46.38
2022-11-14T03:12:56.496Z,45.86
2022-11-14T03:13:56.415Z,57.83
2022-11-14T03:14:56.390Z,57.09
2022-11-14T03:15:56.389Z,50.99
2022-11-14T03:16:56.361Z,51.43
2022-11-14T03:17:56.377Z,44.71
2022-11-14T03:18:56.351Z,56.76
2022-11-14T03:19:56.316Z,58.46
2022-11-14T03:20:56.393Z,52.07
2022-11-14T03:21:56.313Z,46.98
2022-11-14T03:22:56.374Z,46.49
2022-11-14T03:23:56.311Z,44.67
2022-11-14T03:24:56.329Z,44.54
2022-11-14T03:25:56.272Z,45.49
2022-11-14T03:26:56.290Z,48.90
2022-11-14T03:27:56.303Z,56.80
2022-11-14T03:28:56.257Z,47.73
2022-11-14T03:29:56.265Z,60.93
2022-11-14T03:30:56.253Z,54.52
2022-11-14T03:31:56.282Z,53.92
2022-11-14T03:32:56.229Z,51.72
2022-11-14T03:33:56.227Z,52.35
2022-11-14T03:34:56.224Z,52.44
2022-11-14T03:35:56.201Z,50.20
2022-11-14T03:36:56.267Z,48.64
2022-11-14T03:37:56.721Z,51.02
2022-11-14T03:38:57.167Z,50.21
2022-11-14T03:39:56.189Z,59.58
2022-11-14T03:40:56.177Z,49.34
2022-11-14T03:41:56.162Z,48.54
2022-11-14T03:42:56.213Z,46.38
2022-11-14T03:43:56.170Z,45.02
2022-11-14T03:44:56.176Z,52.46
2022-11-14T03:45:56.125Z,53.96
2022-11-14T03:46:56.112Z,54.13
2022-11-14T04:03:55.017Z,61.35
2022-11-14T04:04:54.996Z,63.79
2022-11-14T04:05:56.104Z,53.49
2022-11-14T04:06:56.203Z,54.48
2022-11-14T04:07:56.119Z,54.18
2022-11-14T04:08:56.101Z,62.64
2022-11-14T04:09:56.120Z,46.88
2022-11-14T04:10:56.091Z,50.38
2022-11-14T04:11:56.073Z,60.84
2022-11-14T04:12:56.065Z,47.23
2022-11-14T04:13:56.261Z,59.46
2022-11-14T04:14:56.052Z,64.73
2022-11-14T04:15:56.052Z,60.38
2022-11-14T04:16:56.063Z,56.84
2022-11-14T04:17:56.027Z,56.44
2022-11-14T04:18:56.126Z,56.47
2022-11-14T04:19:56.011Z,60.59
2022-11-14T04:20:56.023Z,53.78
2022-11-14T04:21:55.994Z,63.52
2022-11-14T04:22:55.987Z,56.40
2022-11-14T04:23:55.999Z,48.79
2022-11-14T04:24:55.999Z,60.51
2022-11-14T04:25:55.985Z,61.39
2022-11-14T04:26:55.961Z,65.54
2022-11-14T04:27:55.962Z,64.32
2022-11-14T04:28:55.939Z,58.21
2022-11-14T04:29:55.949Z,60.35
2022-11-14T04:30:55.921Z,66.88
2022-11-14T04:31:55.911Z,66.61
2022-11-14T04:32:56.908Z,64.35
2022-11-14T04:33:55.952Z,63.29
2022-11-14T04:34:56.001Z,56.03
2022-11-14T04:35:55.907Z,60.96
2022-11-14T04:36:55.882Z,68.49
2022-11-14T04:37:55.884Z,65.17
2022-11-14T04:38:56.728Z,61.95
2022-11-14T04:39:55.879Z,67.61
2022-11-14T04:40:55.909Z,59.14
2022-11-14T04:41:55.873Z,63.51
2022-11-14T04:42:55.845Z,68.45
2022-11-14T04:43:55.840Z,64.04
2022-11-14T04:44:55.890Z,68.54
2022-11-14T04:45:55.930Z,65.87
2022-11-14T04:46:55.861Z,65.46
2022-11-14T04:47:55.799Z,68.69
2022-11-14T04:48:55.794Z,64.18
2022-11-14T04:49:55.800Z,65.60
2022-11-14T04:50:55.932Z,59.35
2022-11-14T04:51:55.864Z,69.13
2022-11-14T04:52:55.808Z,69.53
2022-11-14T04:53:55.788Z,62.06
2022-11-14T04:54:55.745Z,49.84
2022-11-14T04:55:55.764Z,62.75
2022-11-14T04:56:55.758Z,68.09
2022-11-14T04:57:55.713Z,70.66
2022-11-14T04:58:55.717Z,58.10
2022-11-14T04:59:55.735Z,66.27
2022-11-14T05:00:55.810Z,59.08
2022-11-14T05:01:55.790Z,63.15
2022-11-14T05:02:56.728Z,57.59
2022-11-14T05:03:55.776Z,67.17
2022-11-14T05:04:55.668Z,58.34
2022-11-14T05:05:55.661Z,62.19
2022-11-14T05:06:55.760Z,62.36
2022-11-14T05:07:55.669Z,66.19
2022-11-14T05:08:55.664Z,68.58
2022-11-14T05:09:55.660Z,62.78
2022-11-14T05:10:55.620Z,59.82
2022-11-14T05:11:55.643Z,66.66
2022-11-14T05:12:55.679Z,65.85
2022-11-14T05:13:55.637Z,63.26
2022-11-14T05:14:55.596Z,68.49
2022-11-14T05:15:55.610Z,69.52
2022-11-14T05:16:55.573Z,58.37
2022-11-14T05:17:55.580Z,64.46
2022-11-14T05:18:55.624Z,64.90
2022-11-14T05:19:56.563Z,60.82
2022-11-14T05:20:55.585Z,64.22
2022-11-14T05:21:55.540Z,65.99
2022-11-14T05:22:55.545Z,69.92
2022-11-14T05:23:55.538Z,67.54
2022-11-14T05:24:55.524Z,67.16
2022-11-14T05:25:58.690Z,61.82
2022-11-14T05:26:56.517Z,70.99
2022-11-14T05:27:55.512Z,69.53
2022-11-14T05:28:55.484Z,66.63
2022-11-14T05:29:55.492Z,68.26
2022-11-14T05:30:55.519Z,64.39
2022-11-14T05:31:55.496Z,62.98
2022-11-14T05:32:56.252Z,69.91
2022-11-14T05:33:55.478Z,67.66
2022-11-14T05:34:55.495Z,71.54
2022-11-14T05:35:55.454Z,60.95
2022-11-14T05:36:55.440Z,72.71
2022-11-14T05:37:59.087Z,68.59
2022-11-14T05:38:56.428Z,70.99
2022-11-14T05:39:55.452Z,68.38
2022-11-14T05:40:55.408Z,69.14
2022-11-14T05:41:55.389Z,69.74
2022-11-14T05:42:55.503Z,69.29
2022-11-14T05:43:55.395Z,65.85
2022-11-14T05:44:56.376Z,69.48
2022-11-14T05:45:55.381Z,73.18
2022-11-14T05:46:55.373Z,63.16
2022-11-14T05:47:55.344Z,64.40
2022-11-14T05:48:55.340Z,73.73
2022-11-14T05:49:55.337Z,67.86
2022-11-14T05:50:56.370Z,71.46
2022-11-14T05:51:55.349Z,65.51
2022-11-14T05:52:55.306Z,69.67
2022-11-14T05:53:55.324Z,69.36
2022-11-14T05:54:55.294Z,70.83
2022-11-14T05:55:55.311Z,68.64
2022-11-14T05:56:55.266Z,65.40
2022-11-14T05:57:55.285Z,61.69
2022-11-14T05:58:55.289Z,71.47
2022-11-14T05:59:55.259Z,67.66
2022-11-14T06:00:55.290Z,70.49
2022-11-14T06:01:55.279Z,68.45
2022-11-14T06:02:55.212Z,66.73
2022-11-14T06:03:56.245Z,70.81
2022-11-14T06:04:55.210Z,65.77
2022-11-14T06:05:55.201Z,67.32
2022-11-14T06:06:55.260Z,71.50
2022-11-14T06:07:55.203Z,67.71
2022-11-14T06:08:55.192Z,73.09
2022-11-14T06:09:55.170Z,71.67
2022-11-14T06:10:56.241Z,71.55
2022-11-14T06:11:55.225Z,70.18
2022-11-14T06:12:55.181Z,73.13
2022-11-14T06:13:55.195Z,72.32
2022-11-14T06:14:55.181Z,70.92
2022-11-14T06:15:55.163Z,68.80
2022-11-14T06:16:55.145Z,70.66
2022-11-14T06:17:55.115Z,71.64
2022-11-14T06:18:55.116Z,72.83
2022-11-14T06:19:55.100Z,74.14
2022-11-14T06:20:55.144Z,71.67
2022-11-14T06:21:55.091Z,73.32
2022-11-14T06:22:55.092Z,76.01
2022-11-14T06:23:55.093Z,74.43
2022-11-14T06:24:55.068Z,70.63
2022-11-14T06:25:55.093Z,71.73
2022-11-14T06:26:55.046Z,71.61
2022-11-14T06:27:55.049Z,69.49
2022-11-14T06:28:55.064Z,72.43
2022-11-14T06:29:55.045Z,71.57
2022-11-14T06:30:55.130Z,70.27
2022-11-14T06:31:55.040Z,69.74
2022-11-14T06:32:55.052Z,71.75
2022-11-14T06:33:55.114Z,73.67
2022-11-14T06:34:55.032Z,72.41
2022-11-14T06:35:55.031Z,72.35
2022-11-14T06:36:55.017Z,72.39
2022-11-14T06:37:54.980Z,72.49
2022-11-14T06:38:54.982Z,72.02
2022-11-14T06:39:55.023Z,72.81
2022-11-14T06:40:54.971Z,74.14
2022-11-14T06:41:54.968Z,69.44
2022-11-14T06:42:54.941Z,74.14
2022-11-14T06:43:54.949Z,68.08
2022-11-14T06:44:54.970Z,70.63
2022-11-14T06:45:54.948Z,66.79
2022-11-14T06:46:54.885Z,71.54
2022-11-14T06:47:54.896Z,73.94
2022-11-14T06:48:54.887Z,72.98
2022-11-14T06:49:54.896Z,73.47
2022-11-14T06:50:54.881Z,73.95
2022-11-14T06:51:54.916Z,70.63
2022-11-14T06:52:54.891Z,74.09
2022-11-14T06:53:54.856Z,71.60
2022-11-14T06:54:54.841Z,70.33
2022-11-14T06:55:54.864Z,68.18
2022-11-14T06:56:54.847Z,65.84
2022-11-14T06:57:54.873Z,68.93
2022-11-14T06:58:54.803Z,69.32
2022-11-14T06:59:54.919Z,72.45
2022-11-14T07:00:54.804Z,65.57
2022-11-14T07:01:54.786Z,72.47
2022-11-14T07:02:54.911Z,66.67
2022-11-14T07:03:54.783Z,73.12
2022-11-14T07:04:54.754Z,72.00
2022-11-14T07:05:54.756Z,64.48
2022-11-14T07:06:54.822Z,72.20
2022-11-14T07:07:54.870Z,68.67
2022-11-14T07:08:54.723Z,70.87
2022-11-14T07:09:54.779Z,73.87
2022-11-14T07:10:54.714Z,71.63
2022-11-14T07:11:54.725Z,71.62
2022-11-14T07:12:54.741Z,67.00
2022-11-14T07:13:54.690Z,68.15
2022-11-14T07:14:54.700Z,66.76
2022-11-14T07:15:54.683Z,71.45
2022-11-14T07:16:54.690Z,72.46
2022-11-14T07:17:54.711Z,70.36
2022-11-14T07:18:54.666Z,69.85
2022-11-14T07:19:54.649Z,68.95
2022-11-14T07:20:54.625Z,71.83
2022-11-14T07:21:54.641Z,72.86
2022-11-14T07:22:54.634Z,72.99
2022-11-14T07:23:54.648Z,71.41
2022-11-14T07:24:54.639Z,70.84
2022-11-14T07:25:54.631Z,72.77
2022-11-14T07:26:54.602Z,73.89
2022-11-14T07:27:54.596Z,67.04
2022-11-14T07:29:00.719Z,70.56
2022-11-14T07:29:56.566Z,69.35
2022-11-14T07:30:54.584Z,65.36
2022-11-14T07:32:26.552Z,69.70
2022-11-14T07:32:54.620Z,55.97
2022-11-14T07:33:54.556Z,72.42
2022-11-14T07:34:59.224Z,60.77
2022-11-14T07:35:56.553Z,73.75
2022-11-14T07:36:54.546Z,65.69
2022-11-14T07:37:54.523Z,67.68
2022-11-14T07:38:54.526Z,68.73
2022-11-14T07:39:54.604Z,68.50
2022-11-14T07:40:59.333Z,65.65
2022-11-14T07:41:56.534Z,63.49
2022-11-14T07:42:54.483Z,72.63
2022-11-14T07:43:54.494Z,69.80
2022-11-14T07:44:54.464Z,73.90
2022-11-14T07:45:54.473Z,71.00
2022-11-14T07:46:54.464Z,69.53
2022-11-14T07:47:54.423Z,68.18
2022-11-14T07:48:54.452Z,74.22
2022-11-14T07:49:54.512Z,73.53
2022-11-14T07:50:54.429Z,68.36
2022-11-14T07:51:54.438Z,67.67
2022-11-14T07:52:54.420Z,69.63
2022-11-14T07:53:55.254Z,67.37
2022-11-14T07:54:54.380Z,61.30
2022-11-14T07:55:54.380Z,68.66
2022-11-14T07:56:54.435Z,71.22
2022-11-14T07:57:54.365Z,63.62
2022-11-14T07:58:54.374Z,68.74
2022-11-14T07:59:54.393Z,72.69
2022-11-14T08:00:54.376Z,67.67
2022-11-14T08:01:54.326Z,68.05
2022-11-14T08:02:54.346Z,68.26
2022-11-14T08:03:54.348Z,66.72
2022-11-14T08:04:54.345Z,71.20
2022-11-14T08:05:54.302Z,72.03
2022-11-14T08:06:54.446Z,66.69
2022-11-14T08:07:54.283Z,63.66
2022-11-14T08:08:54.276Z,65.80
2022-11-14T08:09:54.281Z,67.12
2022-11-14T08:10:54.274Z,66.00
2022-11-14T08:11:54.258Z,69.29
2022-11-14T08:13:10.805Z,68.79
2022-11-14T08:13:56.279Z,66.80
2022-11-14T08:15:26.190Z,70.01
2022-11-14T08:15:54.257Z,61.06
2022-11-14T08:16:54.247Z,67.92
2022-11-14T08:17:54.219Z,66.50
2022-11-14T08:18:54.239Z,69.01
2022-11-14T08:19:55.213Z,71.09
2022-11-14T08:20:54.201Z,66.99
2022-11-14T08:21:54.199Z,70.49
2022-11-14T08:22:54.184Z,64.44
2022-11-14T08:23:54.186Z,67.34
2022-11-14T08:24:54.204Z,65.26
2022-11-14T08:25:54.170Z,69.04
2022-11-14T08:26:54.169Z,63.77
2022-11-14T08:27:54.141Z,67.25
2022-11-14T08:28:54.131Z,70.30
2022-11-14T08:29:54.141Z,67.93
2022-11-14T08:30:54.105Z,67.19
2022-11-14T08:31:58.630Z,68.69
2022-11-14T08:32:56.088Z,69.33
2022-11-14T08:33:54.157Z,74.18
2022-11-14T08:34:54.187Z,59.85
2022-11-14T08:35:54.065Z,67.79
2022-11-14T08:36:54.085Z,68.80
2022-11-14T08:37:54.123Z,68.47
2022-11-14T08:38:58.908Z,69.32
2022-11-14T08:39:56.048Z,64.69
2022-11-14T08:40:54.052Z,68.90
2022-11-14T08:41:54.024Z,64.30
2022-11-14T08:42:54.096Z,60.11
2022-11-14T08:43:54.020Z,73.16
2022-11-14T08:44:54.027Z,69.84
2022-11-14T08:45:54.000Z,68.77
2022-11-14T08:46:53.980Z,65.36
2022-11-14T08:47:53.979Z,66.94
2022-11-14T08:48:54.009Z,66.37
2022-11-14T08:49:54.000Z,69.64
2022-11-14T08:50:53.945Z,71.99
2022-11-14T08:51:53.983Z,70.13
2022-11-14T08:52:53.935Z,70.79
2022-11-14T08:53:53.998Z,63.16
2022-11-14T08:54:53.918Z,68.45
2022-11-14T08:55:53.926Z,70.44
2022-11-14T08:56:53.931Z,68.73
2022-11-14T08:57:53.936Z,62.56
2022-11-14T08:58:54.655Z,66.94
2022-11-14T08:59:53.903Z,68.73
2022-11-14T09:00:53.928Z,62.33
2022-11-14T09:01:53.889Z,64.16
2022-11-14T09:02:53.931Z,65.97
2022-11-14T09:03:59.409Z,63.03
2022-11-14T09:04:56.850Z,64.34
2022-11-14T09:05:53.885Z,57.19
2022-11-14T09:06:53.927Z,68.55
2022-11-14T09:07:53.836Z,60.50
2022-11-14T09:08:53.839Z,68.98
2022-11-14T09:09:53.859Z,64.32
2022-11-14T09:10:53.858Z,64.35
2022-11-14T09:11:53.803Z,69.11
2022-11-14T09:12:53.791Z,64.71
2022-11-14T09:13:53.826Z,62.28
2022-11-14T09:14:53.803Z,71.77
2022-11-14T09:15:53.805Z,70.75
2022-11-14T09:16:53.780Z,65.93
2022-11-14T09:17:53.777Z,69.81
2022-11-14T09:18:53.749Z,66.41
2022-11-14T09:19:53.726Z,65.91
2022-11-14T09:20:54.951Z,65.59
2022-11-14T09:21:53.756Z,65.02
2022-11-14T09:22:53.739Z,65.18
2022-11-14T09:23:58.839Z,70.03
2022-11-14T09:24:56.311Z,67.38
2022-11-14T09:25:53.690Z,69.92
2022-11-14T09:26:57.059Z,64.75
2022-11-14T09:27:54.792Z,65.27
2022-11-14T09:28:53.691Z,67.77
2022-11-14T09:29:53.662Z,61.89
2022-11-14T09:30:53.662Z,69.25
2022-11-14T09:31:53.644Z,63.58
2022-11-14T09:32:53.634Z,71.50
2022-11-14T09:33:53.624Z,71.60
2022-11-14T09:34:53.622Z,64.75
2022-11-14T09:35:53.627Z,70.56
2022-11-14T09:36:53.610Z,68.48
2022-11-14T09:37:53.608Z,66.95
2022-11-14T09:38:53.602Z,66.87
2022-11-14T09:39:53.625Z,61.48
2022-11-14T09:40:53.635Z,65.94
2022-11-14T09:41:54.313Z,67.47
2022-11-14T09:42:53.568Z,66.26
2022-11-14T09:43:54.348Z,68.47
2022-11-14T09:44:53.555Z,62.14
2022-11-14T09:45:53.579Z,67.04
2022-11-14T09:46:53.550Z,64.45
2022-11-14T09:47:53.567Z,70.85
2022-11-14T09:48:53.537Z,69.39
2022-11-14T09:49:54.321Z,65.71
2022-11-14T09:50:53.526Z,64.71
2022-11-14T09:51:53.528Z,67.29
2022-11-14T09:52:53.526Z,67.56
2022-11-14T09:53:53.511Z,65.92
2022-11-14T09:54:53.552Z,59.98
2022-11-14T09:55:53.501Z,63.92
2022-11-14T09:56:53.517Z,65.94
2022-11-14T09:57:53.511Z,69.30
2022-11-14T09:58:53.521Z,64.82
2022-11-14T09:59:53.463Z,65.76
2022-11-14T10:00:53.437Z,63.16
2022-11-14T10:01:53.606Z,60.40
2022-11-14T10:02:53.440Z,68.40
2022-11-14T10:03:53.441Z,68.04
2022-11-14T10:04:53.904Z,63.40
2022-11-14T10:05:53.405Z,70.24
2022-11-14T10:06:53.411Z,68.57
2022-11-14T10:07:53.379Z,67.83
2022-11-14T10:08:53.386Z,65.81
2022-11-14T10:09:53.889Z,65.97
2022-11-14T10:10:53.365Z,70.30
2022-11-14T10:11:53.372Z,69.89
2022-11-14T10:12:53.858Z,62.90
2022-11-14T10:13:53.404Z,61.66
2022-11-14T10:14:53.354Z,64.61
2022-11-14T10:15:53.330Z,58.30
2022-11-14T10:16:53.428Z,64.65
2022-11-14T10:17:53.296Z,58.78
2022-11-14T10:18:53.307Z,64.68
2022-11-14T10:19:53.289Z,67.98
2022-11-14T10:20:53.298Z,66.74
2022-11-14T10:21:53.316Z,62.33
2022-11-14T10:22:56.180Z,68.33
2022-11-14T10:23:54.263Z,65.75
2022-11-14T10:24:53.273Z,66.58
2022-11-14T10:25:53.254Z,69.67
2022-11-14T10:26:53.281Z,66.97
2022-11-14T10:27:57.452Z,70.25
2022-11-14T10:28:55.210Z,66.77
2022-11-14T10:29:53.238Z,67.58
2022-11-14T10:30:53.192Z,68.46
2022-11-14T10:31:54.222Z,66.04
2022-11-14T10:32:53.216Z,67.35
2022-11-14T10:33:53.212Z,65.62
2022-11-14T10:34:53.218Z,63.40
2022-11-14T10:35:53.175Z,62.87
2022-11-14T10:36:53.148Z,66.68
2022-11-14T10:37:53.190Z,64.02
2022-11-14T10:38:53.140Z,65.96
2022-11-14T10:39:53.138Z,63.20
2022-11-14T10:40:53.116Z,66.94
2022-11-14T10:41:59.951Z,72.56
2022-11-14T10:42:55.219Z,66.46
2022-11-14T10:43:53.121Z,67.49
2022-11-14T10:44:53.105Z,68.11
2022-11-14T10:45:53.102Z,65.82
2022-11-14T10:46:53.091Z,69.12
2022-11-14T10:47:53.084Z,67.25
2022-11-14T10:48:56.267Z,66.79
2022-11-14T10:49:55.075Z,71.78
2022-11-14T10:50:53.057Z,66.95
2022-11-14T10:51:53.075Z,67.57
2022-11-14T10:52:53.051Z,64.18
2022-11-14T10:53:53.032Z,68.37
2022-11-14T10:54:53.030Z,68.76
2022-11-14T10:56:05.672Z,64.87
2022-11-14T10:56:55.008Z,65.30
2022-11-14T10:57:53.028Z,69.06
2022-11-14T10:58:52.994Z,68.53
2022-11-14T10:59:52.973Z,68.14
2022-11-14T11:00:53.012Z,66.66
2022-11-14T11:01:52.984Z,66.53
2022-11-14T11:02:52.952Z,67.99
2022-11-14T11:03:53.036Z,68.05
2022-11-14T11:04:52.999Z,67.44
2022-11-14T11:05:52.931Z,64.50
2022-11-14T11:06:52.985Z,62.55
2022-11-14T11:07:53.891Z,62.56
2022-11-14T11:08:52.969Z,70.43
2022-11-14T11:09:53.942Z,65.06
2022-11-14T11:10:52.937Z,67.95
2022-11-14T11:11:52.944Z,65.34
2022-11-14T11:12:52.882Z,66.84
2022-11-14T11:13:53.909Z,69.69
2022-11-14T11:14:52.882Z,70.18
2022-11-14T11:15:52.878Z,68.39
2022-11-14T11:16:52.854Z,64.04
2022-11-14T11:17:52.856Z,67.63
2022-11-14T11:18:52.861Z,63.97
2022-11-14T11:19:52.816Z,70.50
2022-11-14T11:20:53.898Z,68.99
2022-11-14T11:21:53.058Z,66.54
2022-11-14T11:22:52.831Z,65.90
2022-11-14T11:23:52.801Z,66.13
2022-11-14T11:24:52.829Z,68.39
2022-11-14T11:25:52.779Z,68.41
2022-11-14T11:26:52.844Z,66.71
2022-11-14T11:27:52.853Z,71.30
2022-11-14T11:28:52.792Z,61.85
2022-11-14T11:29:52.762Z,65.24
2022-11-14T11:30:54.447Z,67.72
2022-11-14T11:31:53.741Z,67.15
2022-11-14T11:32:52.765Z,70.31
2022-11-14T11:33:52.729Z,64.48
2022-11-14T11:34:52.732Z,61.42
2022-11-14T11:35:52.741Z,69.40
2022-11-14T11:36:52.730Z,67.65
2022-11-14T11:37:52.715Z,63.11
2022-11-14T11:38:52.741Z,67.17
2022-11-14T11:39:52.702Z,62.94
2022-11-14T11:40:52.665Z,67.36
2022-11-14T11:42:10.287Z,69.43
2022-11-14T11:43:36.625Z,64.19
2022-11-14T11:43:57.064Z,70.68
2022-11-14T11:44:53.684Z,63.58
2022-11-14T11:45:52.641Z,64.47
2022-11-14T11:46:52.670Z,69.84
2022-11-14T11:47:52.692Z,66.68
2022-11-14T11:48:52.615Z,61.43
2022-11-14T11:49:54.791Z,69.02
2022-11-14T11:50:53.629Z,64.81
2022-11-14T11:51:52.600Z,64.45
2022-11-14T11:52:52.587Z,67.13
2022-11-14T11:53:52.580Z,65.93
2022-11-14T11:54:52.586Z,68.27
2022-11-14T11:55:52.635Z,62.35
2022-11-14T11:56:52.594Z,70.90
2022-11-14T11:57:52.725Z,63.93
2022-11-14T11:58:52.584Z,67.99
2022-11-14T11:59:52.554Z,64.01
2022-11-14T12:00:52.606Z,68.00
2022-11-14T12:01:52.555Z,67.43
2022-11-14T12:02:52.685Z,68.64
2022-11-14T12:03:52.591Z,65.58
2022-11-14T12:04:52.513Z,67.31
2022-11-14T12:05:52.518Z,65.11
2022-11-14T12:06:52.550Z,64.88
2022-11-14T12:07:53.372Z,67.77
2022-11-14T12:08:52.479Z,63.21
2022-11-14T12:10:11.866Z,66.80
2022-11-14T12:10:54.509Z,71.53
2022-11-14T12:11:52.454Z,64.58
2022-11-14T12:12:52.462Z,68.53
2022-11-14T12:13:52.457Z,68.08
2022-11-14T12:14:52.423Z,68.61
2022-11-14T12:15:52.465Z,60.96
2022-11-14T12:16:52.449Z,67.74
2022-11-14T12:17:52.433Z,68.41
2022-11-14T12:18:52.412Z,69.05
2022-11-14T12:19:52.470Z,66.70
2022-11-14T12:20:52.491Z,58.44
2022-11-14T12:21:58.359Z,70.00
2022-11-14T12:22:54.389Z,67.50
2022-11-14T12:23:52.368Z,70.28
2022-11-14T12:24:52.380Z,64.60
2022-11-14T12:25:52.362Z,68.66
2022-11-14T12:26:52.344Z,66.23
2022-11-14T12:27:52.427Z,71.70
2022-11-14T12:28:52.343Z,70.22
2022-11-14T12:29:52.342Z,65.91
2022-11-14T12:30:52.328Z,66.21
2022-11-14T12:31:52.341Z,63.59
2022-11-14T12:33:24.220Z,65.06
2022-11-14T12:33:52.389Z,68.09
2022-11-14T12:35:24.438Z,64.69
2022-11-14T12:35:52.325Z,68.17
2022-11-14T12:36:52.327Z,63.30
2022-11-14T12:38:24.184Z,68.66
2022-11-14T12:38:52.421Z,67.80
2022-11-14T12:39:52.251Z,68.70
2022-11-14T12:40:52.281Z,64.77
2022-11-14T12:41:52.247Z,70.62
2022-11-14T12:42:52.226Z,67.85
2022-11-14T12:43:52.314Z,67.76
2022-11-14T12:45:24.136Z,68.24
2022-11-14T12:45:52.206Z,63.95
2022-11-14T12:46:52.209Z,67.52
2022-11-14T12:47:52.203Z,70.26
2022-11-14T12:48:52.207Z,66.27
2022-11-14T12:49:52.170Z,68.46
2022-11-14T12:50:52.193Z,63.94
2022-11-14T12:51:52.160Z,67.54
2022-11-14T12:52:52.183Z,72.43
2022-11-14T12:53:52.138Z,70.96
2022-11-14T12:54:52.163Z,61.44
2022-11-14T12:55:52.169Z,70.55
2022-11-14T12:56:54.206Z,67.29
2022-11-14T12:57:53.113Z,59.39
2022-11-14T12:58:52.158Z,68.46
2022-11-14T12:59:52.143Z,67.30
2022-11-14T13:00:52.167Z,67.20
2022-11-14T13:01:52.161Z,63.06
2022-11-14T13:02:52.098Z,70.41
2022-11-14T13:03:52.071Z,66.82
2022-11-14T13:04:52.051Z,67.06
2022-11-14T13:05:52.057Z,68.15
2022-11-14T13:06:52.100Z,70.06
2022-11-14T13:07:52.998Z,68.63
2022-11-14T13:08:52.053Z,64.30
2022-11-14T13:09:52.089Z,69.47
2022-11-14T13:10:52.030Z,67.66
2022-11-14T13:11:52.002Z,69.29
2022-11-14T13:12:51.984Z,67.23
2022-11-14T13:13:52.047Z,65.17
2022-11-14T13:14:51.990Z,66.48
2022-11-14T13:15:51.965Z,69.85
2022-11-14T13:16:52.001Z,69.11
2022-11-14T13:17:51.939Z,70.39
2022-11-14T13:18:51.962Z,59.20
2022-11-14T13:19:51.915Z,67.26
2022-11-14T13:20:51.958Z,69.98
2022-11-14T13:21:51.956Z,69.26
2022-11-14T13:22:51.935Z,67.47
2022-11-14T13:23:51.901Z,66.34
2022-11-14T13:24:51.881Z,67.54